sensor_id;sensor_type;location;lat;lon;timestamp;temperature;humidity
38118;DHT22;23928;47.562;7.508;2023-06-14T00:00:07;15.00;99.90
38118;DHT22;23928;47.562;7.508;2023-06-14T00:02:33;14.90;99.90
38118;DHT22;23928;47.562;7.508;2023-06-14T00:04:59;15.20;99.90
38118;DHT22;23928;47.562;7.508;2023-06-14T00:07:40;15.50;99.90
38118;DHT22;23928;47.562;7.508;2023-06-14T00:10:10;15.30;99.90
38118;DHT22;23928;47.562;7.508;2023-06-14T00:12:37;15.30;99.90
38118;DHT22;23928;47.562;7.508;2023-06-14T00:15:03;15.10;99.90
38118;DHT22;23928;47.562;7.508;2023-06-14T00:17:29;15.00;99.90
38118;DHT22;23928;47.562;7.508;2023-06-14T00:19:56;14.60;99.90
38118;DHT22;23928;47.562;7.508;2023-06-14T00:22:22;14.40;99.90
38118;DHT22;23928;47.562;7.508;2023-06-14T00:24:52;14.70;99.90
38118;DHT22;23928;47.562;7.508;2023-06-14T00:27:18;14.50;99.90
38118;DHT22;23928;47.562;7.508;2023-06-14T00:29:44;14.40;99.90
38118;DHT22;23928;47.562;7.508;2023-06-14T00:32:09;14.60;99.90
38118;DHT22;23928;47.562;7.508;2023-06-14T00:34:35;14.60;99.90
38118;DHT22;23928;47.562;7.508;2023-06-14T00:37:01;14.50;99.90
38118;DHT22;23928;47.562;7.508;2023-06-14T00:39:26;14.30;99.90
38118;DHT22;23928;47.562;7.508;2023-06-14T00:41:52;14.30;99.90
38118;DHT22;23928;47.562;7.508;2023-06-14T00:44:18;14.20;99.90
38118;DHT22;23928;47.562;7.508;2023-06-14T00:46:45;14.10;99.90
38118;DHT22;23928;47.562;7.508;2023-06-14T00:49:12;14.10;99.90
38118;DHT22;23928;47.562;7.508;2023-06-14T00:51:38;14.00;99.90
38118;DHT22;23928;47.562;7.508;2023-06-14T00:54:04;14.00;99.90
38118;DHT22;23928;47.562;7.508;2023-06-14T00:56:30;13.90;99.90
38118;DHT22;23928;47.562;7.508;2023-06-14T00:58:56;13.90;99.90
38118;DHT22;23928;47.562;7.508;2023-06-14T01:01:23;13.90;99.90
38118;DHT22;23928;47.562;7.508;2023-06-14T01:03:49;13.80;99.90
38118;DHT22;23928;47.562;7.508;2023-06-14T01:08:51;13.60;99.90
38118;DHT22;23928;47.562;7.508;2023-06-14T01:11:28;13.50;99.90
38118;DHT22;23928;47.562;7.508;2023-06-14T01:13:56;13.40;99.90
38118;DHT22;23928;47.562;7.508;2023-06-14T01:16:25;13.40;99.90
38118;DHT22;23928;47.562;7.508;2023-06-14T01:18:52;13.50;99.90
38118;DHT22;23928;47.562;7.508;2023-06-14T01:21:25;13.30;99.90
38118;DHT22;23928;47.562;7.508;2023-06-14T01:23:51;13.30;99.90
38118;DHT22;23928;47.562;7.508;2023-06-14T01:26:24;13.50;99.90
38118;DHT22;23928;47.562;7.508;2023-06-14T01:28:52;13.60;99.90
38118;DHT22;23928;47.562;7.508;2023-06-14T01:31:24;13.50;99.90
38118;DHT22;23928;47.562;7.508;2023-06-14T01:33:51;13.50;99.90
38118;DHT22;23928;47.562;7.508;2023-06-14T01:36:19;13.20;99.90
38118;DHT22;23928;47.562;7.508;2023-06-14T01:38:46;13.50;99.90
38118;DHT22;23928;47.562;7.508;2023-06-14T01:41:12;13.40;99.90
38118;DHT22;23928;47.562;7.508;2023-06-14T01:43:38;13.40;99.90
38118;DHT22;23928;47.562;7.508;2023-06-14T01:46:06;13.20;99.90
38118;DHT22;23928;47.562;7.508;2023-06-14T01:48:31;13.20;99.90
38118;DHT22;23928;47.562;7.508;2023-06-14T01:50:57;13.20;99.90
38118;DHT22;23928;47.562;7.508;2023-06-14T01:53:23;13.40;99.90
38118;DHT22;23928;47.562;7.508;2023-06-14T01:55:48;13.40;99.90
38118;DHT22;23928;47.562;7.508;2023-06-14T01:58:15;13.30;99.90
38118;DHT22;23928;47.562;7.508;2023-06-14T02:00:42;13.40;99.90
38118;DHT22;23928;47.562;7.508;2023-06-14T02:03:09;13.40;99.90
38118;DHT22;23928;47.562;7.508;2023-06-14T02:05:34;13.30;99.90
38118;DHT22;23928;47.562;7.508;2023-06-14T02:08:00;13.40;99.90
38118;DHT22;23928;47.562;7.508;2023-06-14T02:10:26;13.60;99.90
38118;DHT22;23928;47.562;7.508;2023-06-14T02:12:51;13.30;99.90
38118;DHT22;23928;47.562;7.508;2023-06-14T02:15:17;12.80;99.90
38118;DHT22;23928;47.562;7.508;2023-06-14T02:17:44;12.70;99.90
38118;DHT22;23928;47.562;7.508;2023-06-14T02:20:10;12.40;99.90
38118;DHT22;23928;47.562;7.508;2023-06-14T02:22:36;12.20;99.90
38118;DHT22;23928;47.562;7.508;2023-06-14T02:25:02;12.30;99.90
38118;DHT22;23928;47.562;7.508;2023-06-14T02:27:27;12.20;99.90
38118;DHT22;23928;47.562;7.508;2023-06-14T02:29:53;12.00;99.90
38118;DHT22;23928;47.562;7.508;2023-06-14T02:32:18;12.00;99.90
38118;DHT22;23928;47.562;7.508;2023-06-14T02:34:44;12.10;99.90
38118;DHT22;23928;47.562;7.508;2023-06-14T02:37:09;11.90;99.90
38118;DHT22;23928;47.562;7.508;2023-06-14T02:39:36;11.90;99.90
38118;DHT22;23928;47.562;7.508;2023-06-14T02:42:02;12.00;99.90
38118;DHT22;23928;47.562;7.508;2023-06-14T02:44:27;11.90;99.90
38118;DHT22;23928;47.562;7.508;2023-06-14T02:46:54;11.90;99.90
38118;DHT22;23928;47.562;7.508;2023-06-14T02:49:21;12.10;99.90
38118;DHT22;23928;47.562;7.508;2023-06-14T02:51:46;12.30;99.90
38118;DHT22;23928;47.562;7.508;2023-06-14T02:54:12;12.10;99.90
38118;DHT22;23928;47.562;7.508;2023-06-14T02:56:38;11.90;99.90
38118;DHT22;23928;47.562;7.508;2023-06-14T02:59:03;11.60;99.90
38118;DHT22;23928;47.562;7.508;2023-06-14T03:01:29;11.70;99.90
38118;DHT22;23928;47.562;7.508;2023-06-14T03:04:02;11.60;99.90
38118;DHT22;23928;47.562;7.508;2023-06-14T03:06:31;11.80;99.90
38118;DHT22;23928;47.562;7.508;2023-06-14T03:08:57;11.70;99.90
38118;DHT22;23928;47.562;7.508;2023-06-14T03:11:29;11.50;99.90
38118;DHT22;23928;47.562;7.508;2023-06-14T03:13:54;11.40;99.90
38118;DHT22;23928;47.562;7.508;2023-06-14T03:16:21;11.40;99.90
38118;DHT22;23928;47.562;7.508;2023-06-14T03:18:50;11.40;99.90
38118;DHT22;23928;47.562;7.508;2023-06-14T03:21:16;11.60;99.90
38118;DHT22;23928;47.562;7.508;2023-06-14T03:23:43;11.60;99.90
38118;DHT22;23928;47.562;7.508;2023-06-14T03:26:08;11.60;99.90
38118;DHT22;23928;47.562;7.508;2023-06-14T03:28:34;11.40;99.90
38118;DHT22;23928;47.562;7.508;2023-06-14T03:31:00;11.80;99.90
38118;DHT22;23928;47.562;7.508;2023-06-14T03:33:26;11.80;99.90
38118;DHT22;23928;47.562;7.508;2023-06-14T03:35:52;11.70;99.90
38118;DHT22;23928;47.562;7.508;2023-06-14T03:38:18;11.50;99.90
38118;DHT22;23928;47.562;7.508;2023-06-14T03:40:44;11.40;99.90
38118;DHT22;23928;47.562;7.508;2023-06-14T03:43:10;11.40;99.90
38118;DHT22;23928;47.562;7.508;2023-06-14T03:45:35;11.30;99.90
38118;DHT22;23928;47.562;7.508;2023-06-14T03:48:01;11.50;99.90
38118;DHT22;23928;47.562;7.508;2023-06-14T03:50:27;11.50;99.90
38118;DHT22;23928;47.562;7.508;2023-06-14T03:52:52;11.30;99.90
38118;DHT22;23928;47.562;7.508;2023-06-14T03:55:18;11.20;99.90
38118;DHT22;23928;47.562;7.508;2023-06-14T03:57:44;11.10;99.90
38118;DHT22;23928;47.562;7.508;2023-06-14T04:00:10;11.20;99.90
38118;DHT22;23928;47.562;7.508;2023-06-14T04:02:37;11.10;99.90
38118;DHT22;23928;47.562;7.508;2023-06-14T04:05:03;11.10;99.90
38118;DHT22;23928;47.562;7.508;2023-06-14T04:07:29;11.00;99.90
38118;DHT22;23928;47.562;7.508;2023-06-14T04:09:55;11.10;99.90
38118;DHT22;23928;47.562;7.508;2023-06-14T04:12:21;11.10;99.90
38118;DHT22;23928;47.562;7.508;2023-06-14T04:14:46;11.30;99.90
38118;DHT22;23928;47.562;7.508;2023-06-14T04:17:12;11.10;99.90
38118;DHT22;23928;47.562;7.508;2023-06-14T04:19:38;11.10;99.90
38118;DHT22;23928;47.562;7.508;2023-06-14T04:22:04;11.20;99.90
38118;DHT22;23928;47.562;7.508;2023-06-14T04:24:29;11.30;99.90
38118;DHT22;23928;47.562;7.508;2023-06-14T04:26:58;11.50;99.90
38118;DHT22;23928;47.562;7.508;2023-06-14T04:29:24;11.60;99.90
38118;DHT22;23928;47.562;7.508;2023-06-14T04:31:53;11.70;99.90
38118;DHT22;23928;47.562;7.508;2023-06-14T04:34:20;11.70;99.90
38118;DHT22;23928;47.562;7.508;2023-06-14T04:36:47;11.80;99.90
38118;DHT22;23928;47.562;7.508;2023-06-14T04:39:18;11.90;99.90
38118;DHT22;23928;47.562;7.508;2023-06-14T04:41:44;11.90;99.90
38118;DHT22;23928;47.562;7.508;2023-06-14T04:44:10;12.10;99.90
38118;DHT22;23928;47.562;7.508;2023-06-14T04:46:36;12.20;99.90
38118;DHT22;23928;47.562;7.508;2023-06-14T04:49:14;12.30;99.90
38118;DHT22;23928;47.562;7.508;2023-06-14T04:51:41;12.40;99.90
38118;DHT22;23928;47.562;7.508;2023-06-14T04:54:08;12.40;99.90
38118;DHT22;23928;47.562;7.508;2023-06-14T04:56:36;12.50;99.90
38118;DHT22;23928;47.562;7.508;2023-06-14T04:59:03;12.60;99.90
38118;DHT22;23928;47.562;7.508;2023-06-14T05:01:31;12.60;99.90
38118;DHT22;23928;47.562;7.508;2023-06-14T05:03:57;12.80;99.90
38118;DHT22;23928;47.562;7.508;2023-06-14T05:06:23;12.90;99.90
38118;DHT22;23928;47.562;7.508;2023-06-14T05:08:49;13.10;99.90
38118;DHT22;23928;47.562;7.508;2023-06-14T05:11:15;13.40;99.90
38118;DHT22;23928;47.562;7.508;2023-06-14T05:13:42;13.70;99.90
38118;DHT22;23928;47.562;7.508;2023-06-14T05:16:08;13.50;99.90
38118;DHT22;23928;47.562;7.508;2023-06-14T05:18:34;13.60;99.90
38118;DHT22;23928;47.562;7.508;2023-06-14T05:21:01;13.70;99.90
38118;DHT22;23928;47.562;7.508;2023-06-14T05:23:26;13.90;99.90
38118;DHT22;23928;47.562;7.508;2023-06-14T05:25:52;14.00;99.90
38118;DHT22;23928;47.562;7.508;2023-06-14T05:28:18;14.00;99.90
38118;DHT22;23928;47.562;7.508;2023-06-14T05:30:44;14.00;99.90
38118;DHT22;23928;47.562;7.508;2023-06-14T05:33:09;14.20;99.90
38118;DHT22;23928;47.562;7.508;2023-06-14T05:35:35;14.30;99.90
38118;DHT22;23928;47.562;7.508;2023-06-14T05:38:01;14.50;99.90
38118;DHT22;23928;47.562;7.508;2023-06-14T05:40:26;14.60;99.90
38118;DHT22;23928;47.562;7.508;2023-06-14T05:42:52;14.80;99.90
38118;DHT22;23928;47.562;7.508;2023-06-14T05:45:18;15.00;99.90
38118;DHT22;23928;47.562;7.508;2023-06-14T05:47:43;15.00;99.90
38118;DHT22;23928;47.562;7.508;2023-06-14T05:50:09;15.00;99.90
38118;DHT22;23928;47.562;7.508;2023-06-14T05:52:35;15.10;99.90
38118;DHT22;23928;47.562;7.508;2023-06-14T05:55:02;15.20;99.90
38118;DHT22;23928;47.562;7.508;2023-06-14T05:57:28;15.20;99.90
38118;DHT22;23928;47.562;7.508;2023-06-14T05:59:54;15.30;99.90
38118;DHT22;23928;47.562;7.508;2023-06-14T06:02:20;15.40;99.90
38118;DHT22;23928;47.562;7.508;2023-06-14T06:04:46;15.40;99.90
38118;DHT22;23928;47.562;7.508;2023-06-14T06:07:11;15.50;99.90
38118;DHT22;23928;47.562;7.508;2023-06-14T06:09:37;15.60;99.90
38118;DHT22;23928;47.562;7.508;2023-06-14T06:12:05;15.70;99.90
38118;DHT22;23928;47.562;7.508;2023-06-14T06:14:31;15.80;99.90
38118;DHT22;23928;47.562;7.508;2023-06-14T06:16:57;15.90;99.90
38118;DHT22;23928;47.562;7.508;2023-06-14T06:19:22;16.10;99.90
38118;DHT22;23928;47.562;7.508;2023-06-14T06:21:48;16.10;99.90
38118;DHT22;23928;47.562;7.508;2023-06-14T06:24:13;16.20;99.90
38118;DHT22;23928;47.562;7.508;2023-06-14T06:26:39;16.20;99.90
38118;DHT22;23928;47.562;7.508;2023-06-14T06:29:05;16.30;99.90
38118;DHT22;23928;47.562;7.508;2023-06-14T06:31:31;16.30;99.90
38118;DHT22;23928;47.562;7.508;2023-06-14T06:33:56;16.30;99.90
38118;DHT22;23928;47.562;7.508;2023-06-14T06:36:22;16.30;99.90
38118;DHT22;23928;47.562;7.508;2023-06-14T06:38:48;16.30;99.90
38118;DHT22;23928;47.562;7.508;2023-06-14T06:41:14;16.40;99.90
38118;DHT22;23928;47.562;7.508;2023-06-14T06:43:39;16.60;99.90
38118;DHT22;23928;47.562;7.508;2023-06-14T06:46:05;16.80;99.90
38118;DHT22;23928;47.562;7.508;2023-06-14T06:48:31;16.90;99.90
38118;DHT22;23928;47.562;7.508;2023-06-14T06:50:56;16.90;99.90
38118;DHT22;23928;47.562;7.508;2023-06-14T06:53:22;17.00;99.90
38118;DHT22;23928;47.562;7.508;2023-06-14T06:55:48;17.20;99.90
38118;DHT22;23928;47.562;7.508;2023-06-14T06:58:14;17.10;99.90
38118;DHT22;23928;47.562;7.508;2023-06-14T07:00:39;17.10;99.90
38118;DHT22;23928;47.562;7.508;2023-06-14T07:03:05;17.20;99.90
38118;DHT22;23928;47.562;7.508;2023-06-14T07:05:30;17.40;99.90
38118;DHT22;23928;47.562;7.508;2023-06-14T07:07:57;17.50;99.90
38118;DHT22;23928;47.562;7.508;2023-06-14T07:10:23;17.50;99.90
38118;DHT22;23928;47.562;7.508;2023-06-14T07:12:52;17.70;99.90
38118;DHT22;23928;47.562;7.508;2023-06-14T07:15:18;17.80;99.90
38118;DHT22;23928;47.562;7.508;2023-06-14T07:17:43;17.80;99.90
38118;DHT22;23928;47.562;7.508;2023-06-14T07:20:09;18.00;99.90
38118;DHT22;23928;47.562;7.508;2023-06-14T07:22:39;17.90;99.90
38118;DHT22;23928;47.562;7.508;2023-06-14T07:25:07;17.80;99.90
38118;DHT22;23928;47.562;7.508;2023-06-14T07:27:33;17.90;99.90
38118;DHT22;23928;47.562;7.508;2023-06-14T07:29:59;18.10;99.90
38118;DHT22;23928;47.562;7.508;2023-06-14T07:32:25;18.20;99.90
38118;DHT22;23928;47.562;7.508;2023-06-14T07:34:50;18.20;99.90
38118;DHT22;23928;47.562;7.508;2023-06-14T07:37:16;18.50;99.90
38118;DHT22;23928;47.562;7.508;2023-06-14T07:39:41;18.20;99.90
38118;DHT22;23928;47.562;7.508;2023-06-14T07:42:07;18.20;99.90
38118;DHT22;23928;47.562;7.508;2023-06-14T07:44:33;18.40;99.90
38118;DHT22;23928;47.562;7.508;2023-06-14T07:46:58;18.60;99.90
38118;DHT22;23928;47.562;7.508;2023-06-14T07:49:26;18.90;99.90
38118;DHT22;23928;47.562;7.508;2023-06-14T07:51:51;18.70;99.90
38118;DHT22;23928;47.562;7.508;2023-06-14T07:54:17;18.90;99.90
38118;DHT22;23928;47.562;7.508;2023-06-14T07:56:42;18.90;99.90
38118;DHT22;23928;47.562;7.508;2023-06-14T07:59:08;19.00;99.90
38118;DHT22;23928;47.562;7.508;2023-06-14T08:01:34;19.00;99.90
38118;DHT22;23928;47.562;7.508;2023-06-14T08:04:00;19.30;99.90
38118;DHT22;23928;47.562;7.508;2023-06-14T08:06:26;19.30;99.90
38118;DHT22;23928;47.562;7.508;2023-06-14T08:08:52;19.20;99.90
38118;DHT22;23928;47.562;7.508;2023-06-14T08:11:18;19.30;99.90
38118;DHT22;23928;47.562;7.508;2023-06-14T08:13:43;19.40;99.90
38118;DHT22;23928;47.562;7.508;2023-06-14T08:16:09;19.60;99.90
38118;DHT22;23928;47.562;7.508;2023-06-14T08:18:36;19.60;99.90
38118;DHT22;23928;47.562;7.508;2023-06-14T08:21:01;19.60;99.90
38118;DHT22;23928;47.562;7.508;2023-06-14T08:23:28;19.80;99.90
38118;DHT22;23928;47.562;7.508;2023-06-14T08:25:53;19.70;99.90
38118;DHT22;23928;47.562;7.508;2023-06-14T08:28:20;20.00;99.90
38118;DHT22;23928;47.562;7.508;2023-06-14T08:30:45;20.20;99.90
38118;DHT22;23928;47.562;7.508;2023-06-14T08:33:11;20.30;99.90
38118;DHT22;23928;47.562;7.508;2023-06-14T08:35:37;20.30;99.90
38118;DHT22;23928;47.562;7.508;2023-06-14T08:38:03;20.10;99.90
38118;DHT22;23928;47.562;7.508;2023-06-14T08:40:30;20.30;99.90
38118;DHT22;23928;47.562;7.508;2023-06-14T08:42:57;20.30;99.90
38118;DHT22;23928;47.562;7.508;2023-06-14T08:45:25;20.40;99.90
38118;DHT22;23928;47.562;7.508;2023-06-14T08:47:51;20.40;99.90
38118;DHT22;23928;47.562;7.508;2023-06-14T08:50:23;20.30;99.90
38118;DHT22;23928;47.562;7.508;2023-06-14T08:52:54;20.70;99.90
38118;DHT22;23928;47.562;7.508;2023-06-14T08:55:22;20.80;99.90
38118;DHT22;23928;47.562;7.508;2023-06-14T08:57:51;21.00;99.90
38118;DHT22;23928;47.562;7.508;2023-06-14T09:00:19;21.00;99.90
38118;DHT22;23928;47.562;7.508;2023-06-14T09:02:46;21.20;99.90
38118;DHT22;23928;47.562;7.508;2023-06-14T09:05:12;21.10;99.90
38118;DHT22;23928;47.562;7.508;2023-06-14T09:07:43;21.10;99.90
38118;DHT22;23928;47.562;7.508;2023-06-14T09:10:11;21.10;99.90
38118;DHT22;23928;47.562;7.508;2023-06-14T09:12:37;21.20;99.90
38118;DHT22;23928;47.562;7.508;2023-06-14T09:15:04;21.50;99.90
38118;DHT22;23928;47.562;7.508;2023-06-14T09:17:38;21.40;99.90
38118;DHT22;23928;47.562;7.508;2023-06-14T09:20:05;21.50;99.90
38118;DHT22;23928;47.562;7.508;2023-06-14T09:22:32;21.50;99.90
38118;DHT22;23928;47.562;7.508;2023-06-14T09:24:58;21.60;99.90
38118;DHT22;23928;47.562;7.508;2023-06-14T09:27:26;21.70;99.90
38118;DHT22;23928;47.562;7.508;2023-06-14T09:29:52;21.90;99.90
38118;DHT22;23928;47.562;7.508;2023-06-14T09:32:18;22.30;99.90
38118;DHT22;23928;47.562;7.508;2023-06-14T09:34:45;22.40;99.90
38118;DHT22;23928;47.562;7.508;2023-06-14T09:37:10;22.20;99.90
38118;DHT22;23928;47.562;7.508;2023-06-14T09:39:49;22.40;99.90
38118;DHT22;23928;47.562;7.508;2023-06-14T09:42:18;22.60;99.90
38118;DHT22;23928;47.562;7.508;2023-06-14T09:44:47;22.40;99.90
38118;DHT22;23928;47.562;7.508;2023-06-14T09:47:15;22.60;99.90
38118;DHT22;23928;47.562;7.508;2023-06-14T09:49:40;22.50;99.90
38118;DHT22;23928;47.562;7.508;2023-06-14T09:52:07;22.30;99.90
38118;DHT22;23928;47.562;7.508;2023-06-14T09:54:40;22.60;99.90
38118;DHT22;23928;47.562;7.508;2023-06-14T09:57:13;22.60;99.90
38118;DHT22;23928;47.562;7.508;2023-06-14T09:59:44;23.20;99.90
38118;DHT22;23928;47.562;7.508;2023-06-14T10:04:48;23.20;99.90
38118;DHT22;23928;47.562;7.508;2023-06-14T10:07:19;23.00;99.90
38118;DHT22;23928;47.562;7.508;2023-06-14T10:09:47;23.20;99.90
38118;DHT22;23928;47.562;7.508;2023-06-14T10:12:18;23.40;99.90
38118;DHT22;23928;47.562;7.508;2023-06-14T10:14:51;23.10;99.90
38118;DHT22;23928;47.562;7.508;2023-06-14T10:22:50;23.50;99.90
38118;DHT22;23928;47.562;7.508;2023-06-14T10:25:26;23.50;99.90
38118;DHT22;23928;47.562;7.508;2023-06-14T10:27:55;23.50;99.90
38118;DHT22;23928;47.562;7.508;2023-06-14T10:30:27;23.70;99.90
38118;DHT22;23928;47.562;7.508;2023-06-14T10:33:08;23.80;99.90
38118;DHT22;23928;47.562;7.508;2023-06-14T10:35:35;23.70;99.90
38118;DHT22;23928;47.562;7.508;2023-06-14T10:38:11;23.90;99.90
38118;DHT22;23928;47.562;7.508;2023-06-14T10:40:39;24.10;99.90
38118;DHT22;23928;47.562;7.508;2023-06-14T10:43:23;24.20;99.00
38118;DHT22;23928;47.562;7.508;2023-06-14T10:46:12;24.10;98.40
38118;DHT22;23928;47.562;7.508;2023-06-14T10:48:41;23.90;97.70
38118;DHT22;23928;47.562;7.508;2023-06-14T10:51:16;24.30;99.70
38118;DHT22;23928;47.562;7.508;2023-06-14T10:53:46;25.00;99.90
38118;DHT22;23928;47.562;7.508;2023-06-14T10:56:31;24.70;98.40
38118;DHT22;23928;47.562;7.508;2023-06-14T10:58:58;24.60;97.20
38118;DHT22;23928;47.562;7.508;2023-06-14T11:01:35;24.50;96.50
38118;DHT22;23928;47.562;7.508;2023-06-14T11:04:11;24.70;97.80
38118;DHT22;23928;47.562;7.508;2023-06-14T11:06:50;24.50;97.20
38118;DHT22;23928;47.562;7.508;2023-06-14T11:09:21;24.00;95.70
38118;DHT22;23928;47.562;7.508;2023-06-14T11:11:51;24.50;96.40
38118;DHT22;23928;47.562;7.508;2023-06-14T11:14:19;24.80;97.80
38118;DHT22;23928;47.562;7.508;2023-06-14T11:16:49;24.90;96.80
38118;DHT22;23928;47.562;7.508;2023-06-14T11:19:15;24.90;98.40
38118;DHT22;23928;47.562;7.508;2023-06-14T11:21:42;24.70;95.70
38118;DHT22;23928;47.562;7.508;2023-06-14T11:24:11;24.90;95.60
38118;DHT22;23928;47.562;7.508;2023-06-14T11:26:38;24.90;96.80
38118;DHT22;23928;47.562;7.508;2023-06-14T11:29:03;25.20;97.80
38118;DHT22;23928;47.562;7.508;2023-06-14T11:31:29;24.90;95.10
38118;DHT22;23928;47.562;7.508;2023-06-14T11:33:56;25.00;97.40
38118;DHT22;23928;47.562;7.508;2023-06-14T11:36:23;24.90;94.90
38118;DHT22;23928;47.562;7.508;2023-06-14T11:38:49;24.70;94.80
38118;DHT22;23928;47.562;7.508;2023-06-14T11:41:14;24.70;95.00
38118;DHT22;23928;47.562;7.508;2023-06-14T11:43:40;25.20;97.50
38118;DHT22;23928;47.562;7.508;2023-06-14T11:46:13;25.40;97.30
38118;DHT22;23928;47.562;7.508;2023-06-14T11:48:41;26.40;98.30
38118;DHT22;23928;47.562;7.508;2023-06-14T11:51:07;26.30;95.60
38118;DHT22;23928;47.562;7.508;2023-06-14T11:53:33;26.00;95.00
38118;DHT22;23928;47.562;7.508;2023-06-14T11:55:59;26.10;96.50
38118;DHT22;23928;47.562;7.508;2023-06-14T11:58:26;25.80;94.70
38118;DHT22;23928;47.562;7.508;2023-06-14T12:00:53;25.70;93.60
38118;DHT22;23928;47.562;7.508;2023-06-14T12:03:23;25.50;94.50
38118;DHT22;23928;47.562;7.508;2023-06-14T12:06:01;25.60;93.50
38118;DHT22;23928;47.562;7.508;2023-06-14T12:08:38;26.20;94.00
38118;DHT22;23928;47.562;7.508;2023-06-14T12:11:06;25.90;94.50
38118;DHT22;23928;47.562;7.508;2023-06-14T12:13:34;26.10;93.50
38118;DHT22;23928;47.562;7.508;2023-06-14T12:16:00;26.10;93.30
38118;DHT22;23928;47.562;7.508;2023-06-14T12:18:37;26.00;94.90
38118;DHT22;23928;47.562;7.508;2023-06-14T12:21:04;26.40;95.90
38118;DHT22;23928;47.562;7.508;2023-06-14T12:23:47;26.50;94.50
38118;DHT22;23928;47.562;7.508;2023-06-14T12:26:14;26.40;93.70
38118;DHT22;23928;47.562;7.508;2023-06-14T12:28:41;26.30;94.30
38118;DHT22;23928;47.562;7.508;2023-06-14T12:31:11;26.40;93.40
38118;DHT22;23928;47.562;7.508;2023-06-14T12:33:38;26.40;95.70
38118;DHT22;23928;47.562;7.508;2023-06-14T12:36:05;26.80;94.10
38118;DHT22;23928;47.562;7.508;2023-06-14T12:38:32;27.00;91.70
38118;DHT22;23928;47.562;7.508;2023-06-14T12:40:57;26.30;91.10
38118;DHT22;23928;47.562;7.508;2023-06-14T12:43:23;26.30;92.00
38118;DHT22;23928;47.562;7.508;2023-06-14T12:45:48;27.20;93.70
38118;DHT22;23928;47.562;7.508;2023-06-14T12:48:15;27.20;92.40
38118;DHT22;23928;47.562;7.508;2023-06-14T12:50:41;27.80;96.10
38118;DHT22;23928;47.562;7.508;2023-06-14T12:53:07;27.80;92.70
38118;DHT22;23928;47.562;7.508;2023-06-14T12:55:33;27.20;92.40
38118;DHT22;23928;47.562;7.508;2023-06-14T12:57:59;27.20;92.70
38118;DHT22;23928;47.562;7.508;2023-06-14T13:00:24;27.50;93.60
38118;DHT22;23928;47.562;7.508;2023-06-14T13:02:53;26.80;91.30
38118;DHT22;23928;47.562;7.508;2023-06-14T13:05:19;26.70;91.70
38118;DHT22;23928;47.562;7.508;2023-06-14T13:07:44;26.60;91.30
38118;DHT22;23928;47.562;7.508;2023-06-14T13:10:10;26.70;92.00
38118;DHT22;23928;47.562;7.508;2023-06-14T13:12:36;27.00;91.90
38118;DHT22;23928;47.562;7.508;2023-06-14T13:15:02;27.30;92.70
38118;DHT22;23928;47.562;7.508;2023-06-14T13:17:27;26.80;90.20
38118;DHT22;23928;47.562;7.508;2023-06-14T13:19:53;26.70;90.80
38118;DHT22;23928;47.562;7.508;2023-06-14T13:22:19;26.50;89.80
38118;DHT22;23928;47.562;7.508;2023-06-14T13:24:44;26.90;92.50
38118;DHT22;23928;47.562;7.508;2023-06-14T13:27:10;27.30;91.80
38118;DHT22;23928;47.562;7.508;2023-06-14T13:29:36;27.40;90.20
38118;DHT22;23928;47.562;7.508;2023-06-14T13:32:02;27.30;90.40
38118;DHT22;23928;47.562;7.508;2023-06-14T13:34:28;26.80;90.00
38118;DHT22;23928;47.562;7.508;2023-06-14T13:36:54;27.40;90.50
38118;DHT22;23928;47.562;7.508;2023-06-14T13:39:19;27.40;91.70
38118;DHT22;23928;47.562;7.508;2023-06-14T13:41:45;27.50;90.20
38118;DHT22;23928;47.562;7.508;2023-06-14T13:44:10;27.40;88.50
38118;DHT22;23928;47.562;7.508;2023-06-14T13:46:41;26.90;87.80
38118;DHT22;23928;47.562;7.508;2023-06-14T13:49:08;27.10;91.20
38118;DHT22;23928;47.562;7.508;2023-06-14T13:51:34;27.50;88.20
38118;DHT22;23928;47.562;7.508;2023-06-14T13:54:00;27.40;89.60
38118;DHT22;23928;47.562;7.508;2023-06-14T13:56:26;27.40;90.80
38118;DHT22;23928;47.562;7.508;2023-06-14T13:58:52;27.80;90.30
38118;DHT22;23928;47.562;7.508;2023-06-14T14:01:17;27.80;90.40
38118;DHT22;23928;47.562;7.508;2023-06-14T14:03:45;28.30;89.40
38118;DHT22;23928;47.562;7.508;2023-06-14T14:06:11;27.40;91.10
38118;DHT22;23928;47.562;7.508;2023-06-14T14:08:37;27.50;88.80
38118;DHT22;23928;47.562;7.508;2023-06-14T14:11:03;27.20;88.80
38118;DHT22;23928;47.562;7.508;2023-06-14T14:13:29;27.60;90.60
38118;DHT22;23928;47.562;7.508;2023-06-14T14:15:54;27.80;87.40
38118;DHT22;23928;47.562;7.508;2023-06-14T14:18:20;27.60;90.90
38118;DHT22;23928;47.562;7.508;2023-06-14T14:20:47;27.80;90.00
38118;DHT22;23928;47.562;7.508;2023-06-14T14:23:12;28.10;90.30
38118;DHT22;23928;47.562;7.508;2023-06-14T14:25:38;28.40;87.60
38118;DHT22;23928;47.562;7.508;2023-06-14T14:28:04;27.80;88.50
38118;DHT22;23928;47.562;7.508;2023-06-14T14:30:29;28.00;86.40
38118;DHT22;23928;47.562;7.508;2023-06-14T14:32:55;27.10;85.00
38118;DHT22;23928;47.562;7.508;2023-06-14T14:35:21;27.60;90.40
38118;DHT22;23928;47.562;7.508;2023-06-14T14:37:48;27.50;87.60
38118;DHT22;23928;47.562;7.508;2023-06-14T14:40:13;26.90;86.00
38118;DHT22;23928;47.562;7.508;2023-06-14T14:42:39;27.30;90.50
38118;DHT22;23928;47.562;7.508;2023-06-14T14:45:05;27.40;90.30
38118;DHT22;23928;47.562;7.508;2023-06-14T14:47:31;28.00;87.80
38118;DHT22;23928;47.562;7.508;2023-06-14T14:49:56;27.90;86.20
38118;DHT22;23928;47.562;7.508;2023-06-14T14:52:22;27.30;85.10
38118;DHT22;23928;47.562;7.508;2023-06-14T14:54:48;27.20;88.70
38118;DHT22;23928;47.562;7.508;2023-06-14T14:57:13;27.80;89.60
38118;DHT22;23928;47.562;7.508;2023-06-14T14:59:39;28.00;86.50
38118;DHT22;23928;47.562;7.508;2023-06-14T15:02:05;28.50;85.10
38118;DHT22;23928;47.562;7.508;2023-06-14T15:04:30;28.50;87.70
38118;DHT22;23928;47.562;7.508;2023-06-14T15:06:57;28.30;86.50
38118;DHT22;23928;47.562;7.508;2023-06-14T15:09:22;27.30;86.80
38118;DHT22;23928;47.562;7.508;2023-06-14T15:11:48;27.20;86.00
38118;DHT22;23928;47.562;7.508;2023-06-14T15:14:14;27.50;83.60
38118;DHT22;23928;47.562;7.508;2023-06-14T15:16:40;27.30;86.90
38118;DHT22;23928;47.562;7.508;2023-06-14T15:19:05;28.00;85.90
38118;DHT22;23928;47.562;7.508;2023-06-14T15:21:31;27.80;87.70
38118;DHT22;23928;47.562;7.508;2023-06-14T15:23:57;28.00;85.90
38118;DHT22;23928;47.562;7.508;2023-06-14T15:26:22;28.10;85.10
38118;DHT22;23928;47.562;7.508;2023-06-14T15:28:49;27.60;86.70
38118;DHT22;23928;47.562;7.508;2023-06-14T15:31:15;27.60;86.20
38118;DHT22;23928;47.562;7.508;2023-06-14T15:33:41;28.50;87.40
38118;DHT22;23928;47.562;7.508;2023-06-14T15:36:06;27.50;85.90
38118;DHT22;23928;47.562;7.508;2023-06-14T15:38:35;27.60;87.10